createdAt,value
2019-02-24T00:00:19.731Z,73.62
2019-02-24T00:05:33.056Z,81.10
2019-02-24T00:10:38.053Z,70.71
2019-02-24T00:15:48.250Z,70.44
2019-02-24T00:20:58.892Z,69.11
2019-02-24T00:26:04.689Z,70.33
2019-02-24T00:31:14.124Z,80.78
2019-02-24T00:36:18.423Z,88.67
2019-02-24T00:41:30.670Z,84.36
2019-02-24T00:46:41.269Z,87.89
2019-02-24T00:51:45.051Z,91.40
2019-02-24T00:56:56.536Z,94.29
2019-02-24T01:02:07.710Z,80.20
2019-02-24T01:07:15.786Z,82.78
2019-02-24T01:12:21.951Z,80.86
2019-02-24T01:17:29.950Z,69.44
2019-02-24T01:22:38.586Z,67.00
2019-02-24T01:27:42.285Z,69.00
2019-02-24T01:32:51.700Z,63.22
2019-02-24T01:38:02.666Z,63.00
2019-02-24T01:43:12.811Z,62.91
2019-02-24T01:48:21.286Z,65.22
2019-02-24T01:53:28.215Z,57.89
2019-02-24T01:58:35.411Z,57.71
2019-02-24T02:03:43.482Z,67.00
2019-02-24T02:08:52.128Z,58.13
2019-02-24T02:13:57.269Z,61.71
2019-02-24T02:19:05.874Z,59.56
2019-02-24T02:24:12.801Z,60.78
2019-02-24T02:29:20.607Z,64.56
2019-02-24T02:34:29.226Z,63.00
2019-02-24T02:39:36.251Z,61.67
2019-02-24T02:44:46.350Z,61.89
2019-02-24T02:49:53.351Z,59.00
2019-02-24T02:55:01.798Z,55.00
2019-02-24T03:00:11.968Z,55.38
2019-02-24T03:05:19.976Z,57.25
2019-02-24T03:10:29.427Z,63.89
2019-02-24T03:15:36.687Z,66.78
2019-02-24T03:20:46.115Z,65.89
2019-02-24T03:25:54.184Z,64.78
2019-02-24T03:30:59.891Z,67.75
2019-02-24T03:36:07.775Z,75.00
2019-02-24T03:41:15.790Z,61.00
2019-02-24T03:46:26.391Z,62.67
2019-02-24T03:51:34.294Z,61.13
2019-02-24T03:56:42.363Z,61.78
2019-02-24T04:01:49.441Z,58.00
2019-02-24T04:06:56.398Z,62.50
2019-02-24T04:12:03.644Z,56.22
2019-02-24T04:17:13.135Z,58.11
2019-02-24T04:22:21.956Z,61.50
2019-02-24T04:27:31.920Z,61.13
2019-02-24T04:32:39.010Z,59.56
2019-02-24T04:37:44.211Z,61.14
2019-02-24T04:42:49.670Z,60.75
2019-02-24T04:47:57.746Z,61.44
2019-02-24T04:53:05.950Z,63.33
2019-02-24T04:58:16.707Z,68.80
2019-02-24T05:03:27.407Z,73.00
2019-02-24T05:08:38.062Z,73.00
2019-02-24T05:13:48.098Z,78.78
2019-02-24T05:18:56.316Z,76.78
2019-02-24T05:24:04.430Z,76.00
2019-02-24T05:29:15.299Z,71.11
2019-02-24T05:34:25.446Z,72.00
2019-02-24T05:39:37.331Z,70.11
2019-02-24T05:44:42.255Z,70.67
2019-02-24T05:49:45.152Z,63.00
2019-02-24T05:54:51.829Z,64.71
2019-02-24T05:59:58.945Z,66.12
2019-02-24T06:05:04.359Z,61.00
2019-02-24T06:10:12.431Z,58.56
2019-02-24T06:15:19.559Z,55.12
2019-02-24T06:20:28.911Z,61.13
2019-02-24T06:25:35.787Z,58.87
2019-02-24T06:30:40.715Z,57.00
2019-02-24T06:35:49.010Z,58.22
2019-02-24T06:40:59.863Z,56.91
2019-02-24T06:46:07.931Z,54.78
2019-02-24T06:51:14.498Z,56.00
2019-02-24T06:56:23.115Z,49.78
2019-02-24T07:01:32.474Z,51.75
2019-02-24T07:06:39.300Z,50.00
2019-02-24T07:11:45.735Z,49.00
2019-02-24T07:16:49.991Z,49.00
2019-02-24T07:21:54.459Z,44.00
2019-02-24T07:26:59.009Z,48.50
2019-02-24T07:32:07.540Z,47.62
2019-02-24T07:37:18.273Z,50.27
2019-02-24T07:42:26.784Z,47.38
2019-02-24T07:47:35.300Z,42.00
2019-02-24T07:52:40.502Z,43.00
2019-02-24T07:57:44.550Z,43.50
2019-02-24T08:02:48.893Z,44.50
2019-02-24T08:07:53.098Z,43.00
2019-02-24T08:12:56.588Z,43.33
2019-02-24T08:18:00.240Z,38.67
2019-02-24T08:23:03.695Z,35.00
2019-02-24T08:28:11.245Z,38.63
2019-02-24T08:33:17.850Z,40.50
2019-02-24T08:38:24.496Z,38.00
2019-02-24T08:43:32.459Z,37.13
2019-02-24T08:48:38.672Z,38.75
2019-02-24T08:53:46.861Z,36.00
2019-02-24T08:58:53.287Z,36.00
2019-02-24T09:03:59.005Z,39.29
2019-02-24T09:09:03.755Z,39.00
2019-02-24T09:14:08.382Z,41.50
2019-02-24T09:19:16.701Z,37.00
2019-02-24T09:24:19.690Z,40.67
2019-02-24T09:29:24.326Z,35.75
2019-02-24T09:34:32.726Z,38.86
2019-02-24T09:39:37.294Z,38.00
2019-02-24T09:44:40.943Z,40.00
2019-02-24T09:49:45.658Z,41.50
2019-02-24T09:54:49.641Z,40.00
2019-02-24T09:59:57.762Z,42.00
2019-02-24T10:05:06.228Z,44.00
2019-02-24T10:10:12.724Z,44.00
2019-02-24T10:15:19.011Z,44.00
2019-02-24T10:20:25.562Z,43.25
2019-02-24T10:25:32.840Z,41.00
2019-02-24T10:30:36.835Z,44.00
2019-02-24T10:35:41.099Z,47.00
2019-02-24T10:40:45.162Z,42.25
2019-02-24T10:45:51.829Z,45.00
2019-02-24T10:50:58.672Z,46.00
2019-02-24T10:56:05.348Z,48.00
2019-02-24T11:01:12.326Z,49.50
2019-02-24T11:06:20.878Z,47.00
2019-02-24T11:11:28.448Z,44.14
2019-02-24T11:16:36.200Z,46.71
2019-02-24T11:21:41.706Z,42.57
2019-02-24T11:26:48.473Z,43.25
2019-02-24T11:31:52.822Z,42.00
2019-02-24T11:36:57.026Z,48.00
2019-02-24T11:42:05.354Z,45.00
2019-02-24T11:47:12.548Z,47.78
2019-02-24T11:52:18.857Z,48.00
2019-02-24T11:57:26.649Z,43.43
2019-02-24T12:02:34.886Z,43.29
2019-02-24T12:07:42.810Z,38.88
2019-02-24T12:12:51.116Z,44.38
2019-02-24T12:17:59.346Z,46.63
2019-02-24T12:23:05.339Z,43.75
2019-02-24T12:28:13.747Z,41.00
2019-02-24T12:33:17.058Z,47.00
2019-02-24T12:38:25.462Z,41.37
2019-02-24T12:43:33.734Z,42.62
2019-02-24T12:48:38.183Z,48.00
2019-02-24T12:53:44.979Z,44.00
2019-02-24T12:58:53.239Z,38.38
2019-02-24T13:04:00.604Z,32.25
2019-02-24T13:09:09.306Z,30.88
2019-02-24T13:14:18.490Z,39.75
2019-02-24T13:19:27.170Z,32.25
2019-02-24T13:24:35.067Z,32.13
2019-02-24T13:29:39.790Z,38.50
2019-02-24T13:34:48.508Z,41.13
2019-02-24T13:39:58.797Z,38.22
2019-02-24T13:45:10.029Z,37.00
2019-02-24T13:50:14.826Z,37.50
2019-02-24T13:55:21.590Z,43.25
2019-02-24T14:00:30.155Z,40.00
2019-02-24T14:05:36.808Z,42.50
2019-02-24T14:10:39.823Z,44.33
2019-02-24T14:15:43.873Z,43.00
2019-02-24T14:20:50.376Z,42.62
2019-02-24T14:25:58.146Z,41.00
2019-02-24T14:31:06.494Z,41.13
2019-02-24T14:36:10.443Z,46.25
2019-02-24T14:41:14.404Z,44.00
2019-02-24T14:46:22.681Z,41.75
2019-02-24T14:51:29.334Z,47.38
2019-02-24T14:56:33.417Z,46.75
2019-02-24T15:01:36.768Z,45.67
2019-02-24T15:06:42.188Z,44.14
2019-02-24T15:11:47.279Z,48.29
2019-02-24T15:16:51.139Z,45.75
2019-02-24T15:22:00.184Z,47.75
2019-02-24T15:27:08.654Z,41.25
2019-02-24T15:32:12.317Z,47.00
2019-02-24T15:37:21.659Z,47.10
2019-02-24T15:42:28.130Z,45.25
2019-02-24T15:47:36.075Z,43.29
2019-02-24T15:52:40.099Z,44.00
2019-02-24T15:57:47.537Z,42.90
2019-02-24T16:03:01.494Z,45.63
2019-02-24T16:08:01.300Z,42.67
2019-02-24T16:13:16.630Z,45.29
2019-02-24T16:18:14.698Z,38.33
2019-02-24T16:23:18.798Z,42.00
2019-02-24T16:28:22.623Z,42.00
2019-02-24T16:33:26.159Z,43.33
2019-02-24T16:38:33.960Z,42.38
2019-02-24T16:43:42.432Z,44.75
2019-02-24T16:48:47.103Z,44.00
2019-02-24T16:53:51.362Z,47.00
2019-02-24T16:58:54.859Z,46.67
2019-02-24T17:03:58.970Z,44.50
2019-02-24T17:09:04.209Z,44.00
2019-02-24T17:14:10.544Z,47.50
2019-02-24T17:19:15.400Z,44.00
2019-02-24T17:24:19.685Z,46.00
2019-02-24T17:34:47.385Z,46.13
2019-02-24T17:39:54.578Z,45.00
2019-02-24T17:45:06.542Z,46.50
2019-02-24T17:50:14.520Z,47.75
2019-02-24T17:55:23.503Z,48.87
2019-02-24T18:00:30.057Z,47.00
2019-02-24T18:05:34.723Z,45.00
2019-02-24T18:10:42.198Z,49.44
2019-02-24T18:15:47.138Z,52.00
2019-02-24T18:20:56.318Z,50.00
2019-02-24T18:26:03.055Z,46.37
2019-02-24T18:31:13.719Z,49.25
2019-02-24T18:36:20.747Z,48.00
2019-02-24T18:41:29.268Z,46.25
2019-02-24T18:46:37.551Z,47.62
2019-02-24T18:51:43.492Z,48.00
2019-02-24T18:56:51.997Z,46.13
2019-02-24T19:01:56.713Z,51.00
2019-02-24T19:07:00.691Z,42.00
2019-02-24T19:12:06.016Z,46.43
2019-02-24T19:17:12.839Z,47.88
2019-02-24T19:22:19.848Z,49.75
2019-02-24T19:27:26.576Z,47.50
2019-02-24T19:32:34.085Z,51.00
2019-02-24T19:37:44.366Z,53.00
2019-02-24T19:42:50.934Z,54.75
2019-02-24T19:48:00.100Z,52.88
2019-02-24T19:53:05.798Z,58.80
2019-02-24T19:58:15.260Z,56.00
2019-02-24T20:03:24.406Z,63.00
2019-02-24T20:08:28.651Z,60.00
2019-02-24T20:13:38.092Z,58.60
2019-02-24T20:18:45.522Z,59.22
2019-02-24T20:23:53.303Z,62.78
2019-02-24T20:29:00.154Z,52.13
2019-02-24T20:34:05.568Z,50.75
2019-02-24T20:39:09.379Z,52.25
2019-02-24T20:44:16.818Z,52.75
2019-02-24T20:49:23.555Z,57.38
2019-02-24T20:54:30.350Z,52.25
2019-02-24T20:59:37.722Z,52.33
2019-02-24T21:04:42.642Z,49.75
2019-02-24T21:09:51.406Z,51.75
2019-02-24T21:14:58.448Z,48.33
2019-02-24T21:20:11.122Z,50.00
2019-02-24T21:25:18.591Z,47.75
2019-02-24T21:30:28.200Z,49.75
2019-02-24T21:35:32.712Z,46.50
2019-02-24T21:40:39.713Z,52.00
2019-02-24T21:45:46.741Z,46.75
2019-02-24T21:50:53.135Z,49.00
2019-02-24T21:56:01.471Z,48.25
2019-02-24T22:01:05.642Z,50.50
2019-02-24T22:06:13.938Z,50.00
2019-02-24T22:11:17.808Z,46.00
2019-02-24T22:16:26.389Z,49.13
2019-02-24T22:21:35.674Z,46.83
2019-02-24T22:26:39.883Z,48.00
2019-02-24T22:31:46.887Z,50.12
2019-02-24T22:36:53.827Z,51.00
2019-02-24T22:41:58.102Z,51.50
2019-02-24T22:47:07.230Z,51.00
2019-02-24T22:52:14.101Z,53.00
2019-02-24T22:57:18.531Z,51.00
2019-02-24T23:02:27.234Z,50.00
2019-02-24T23:07:37.510Z,49.78
2019-02-24T23:12:46.951Z,50.88
2019-02-24T23:17:52.014Z,50.14
2019-02-24T23:22:59.645Z,49.67
2019-02-24T23:28:04.635Z,52.14
2019-02-24T23:33:13.973Z,50.00
2019-02-24T23:38:19.029Z,49.29
2019-02-24T23:43:30.104Z,49.33
2019-02-24T23:48:37.727Z,52.11
2019-02-24T23:53:44.600Z,49.00
2019-02-24T23:58:49.720Z,48.43
